sensor_id;sensor_type;location;lat;lon;timestamp;P1;durP1;ratioP1;P2;durP2;ratioP2
45694;SDS011;31408;45.468;9.124;2023-02-28T00:00:07;9.27;;;4.53;;
45694;SDS011;31408;45.468;9.124;2023-02-28T00:02:42;9.35;;;5.18;;
45694;SDS011;31408;45.468;9.124;2023-02-28T00:05:09;9.65;;;3.78;;
45694;SDS011;31408;45.468;9.124;2023-02-28T00:07:35;5.82;;;3.05;;
45694;SDS011;31408;45.468;9.124;2023-02-28T00:10:02;9.02;;;4.20;;
45694;SDS011;31408;45.468;9.124;2023-02-28T00:12:28;7.03;;;4.30;;
45694;SDS011;31408;45.468;9.124;2023-02-28T00:14:53;12.68;;;6.35;;
45694;SDS011;31408;45.468;9.124;2023-02-28T00:17:19;7.18;;;4.22;;
45694;SDS011;31408;45.468;9.124;2023-02-28T00:19:49;8.70;;;5.18;;
45694;SDS011;31408;45.468;9.124;2023-02-28T00:22:16;9.43;;;5.72;;
45694;SDS011;31408;45.468;9.124;2023-02-28T00:24:43;7.43;;;4.07;;
45694;SDS011;31408;45.468;9.124;2023-02-28T00:27:08;12.80;;;5.05;;
45694;SDS011;31408;45.468;9.124;2023-02-28T00:29:34;12.27;;;5.18;;
45694;SDS011;31408;45.468;9.124;2023-02-28T00:31:59;9.60;;;4.18;;
45694;SDS011;31408;45.468;9.124;2023-02-28T00:34:25;8.30;;;4.40;;
45694;SDS011;31408;45.468;9.124;2023-02-28T00:36:52;9.75;;;4.53;;
45694;SDS011;31408;45.468;9.124;2023-02-28T00:39:17;8.48;;;5.07;;
45694;SDS011;31408;45.468;9.124;2023-02-28T00:41:42;9.05;;;3.85;;
45694;SDS011;31408;45.468;9.124;2023-02-28T00:44:08;10.38;;;4.78;;
45694;SDS011;31408;45.468;9.124;2023-02-28T00:46:34;11.68;;;3.90;;
45694;SDS011;31408;45.468;9.124;2023-02-28T00:48:59;6.15;;;3.45;;
45694;SDS011;31408;45.468;9.124;2023-02-28T00:51:25;7.82;;;3.97;;
45694;SDS011;31408;45.468;9.124;2023-02-28T00:53:50;10.38;;;4.70;;
45694;SDS011;31408;45.468;9.124;2023-02-28T00:56:16;9.70;;;4.63;;
45694;SDS011;31408;45.468;9.124;2023-02-28T00:58:41;8.75;;;3.88;;
45694;SDS011;31408;45.468;9.124;2023-02-28T01:01:07;11.25;;;4.50;;
45694;SDS011;31408;45.468;9.124;2023-02-28T01:03:32;8.02;;;4.10;;
45694;SDS011;31408;45.468;9.124;2023-02-28T01:05:58;8.13;;;4.30;;
45694;SDS011;31408;45.468;9.124;2023-02-28T01:08:24;7.03;;;3.70;;
45694;SDS011;31408;45.468;9.124;2023-02-28T01:10:51;14.60;;;5.28;;
45694;SDS011;31408;45.468;9.124;2023-02-28T01:13:16;6.75;;;3.88;;
45694;SDS011;31408;45.468;9.124;2023-02-28T01:15:46;7.43;;;3.80;;
45694;SDS011;31408;45.468;9.124;2023-02-28T01:18:16;7.72;;;4.30;;
45694;SDS011;31408;45.468;9.124;2023-02-28T01:20:41;8.02;;;4.10;;
45694;SDS011;31408;45.468;9.124;2023-02-28T01:23:08;6.50;;;3.13;;
45694;SDS011;31408;45.468;9.124;2023-02-28T01:25:34;7.13;;;3.25;;
45694;SDS011;31408;45.468;9.124;2023-02-28T01:28:01;8.55;;;4.45;;
45694;SDS011;31408;45.468;9.124;2023-02-28T01:30:27;7.43;;;3.80;;
45694;SDS011;31408;45.468;9.124;2023-02-28T01:32:53;7.72;;;4.03;;
45694;SDS011;31408;45.468;9.124;2023-02-28T01:35:19;8.07;;;4.38;;
45694;SDS011;31408;45.468;9.124;2023-02-28T01:37:44;9.05;;;4.60;;
45694;SDS011;31408;45.468;9.124;2023-02-28T01:40:10;13.98;;;4.82;;
45694;SDS011;31408;45.468;9.124;2023-02-28T01:42:36;8.23;;;4.18;;
45694;SDS011;31408;45.468;9.124;2023-02-28T01:47:46;6.90;;;3.88;;
45694;SDS011;31408;45.468;9.124;2023-02-28T01:50:14;8.55;;;4.50;;
45694;SDS011;31408;45.468;9.124;2023-02-28T01:52:43;10.38;;;4.72;;
45694;SDS011;31408;45.468;9.124;2023-02-28T01:55:09;9.02;;;4.22;;
45694;SDS011;31408;45.468;9.124;2023-02-28T01:57:40;9.68;;;4.95;;
45694;SDS011;31408;45.468;9.124;2023-02-28T02:02:38;11.45;;;4.68;;
45694;SDS011;31408;45.468;9.124;2023-02-28T02:05:09;7.72;;;4.55;;
45694;SDS011;31408;45.468;9.124;2023-02-28T02:07:39;10.25;;;4.57;;
45694;SDS011;31408;45.468;9.124;2023-02-28T02:10:13;7.53;;;3.92;;
45694;SDS011;31408;45.468;9.124;2023-02-28T02:18:35;9.70;;;4.30;;
45694;SDS011;31408;45.468;9.124;2023-02-28T02:21:15;7.82;;;4.50;;
45694;SDS011;31408;45.468;9.124;2023-02-28T02:24:11;12.20;;;4.68;;
45694;SDS011;31408;45.468;9.124;2023-02-28T02:26:44;13.02;;;4.43;;
45694;SDS011;31408;45.468;9.124;2023-02-28T02:35:43;8.43;;;4.18;;
45694;SDS011;31408;45.468;9.124;2023-02-28T02:38:58;8.07;;;3.80;;
45694;SDS011;31408;45.468;9.124;2023-02-28T02:41:04;9.10;;;4.72;;
45694;SDS011;31408;45.468;9.124;2023-02-28T02:43:36;6.82;;;3.42;;
45694;SDS011;31408;45.468;9.124;2023-02-28T02:46:10;8.88;;;4.40;;
45694;SDS011;31408;45.468;9.124;2023-02-28T02:48:39;7.63;;;3.70;;
45694;SDS011;31408;45.468;9.124;2023-02-28T02:51:17;7.88;;;4.22;;
45694;SDS011;31408;45.468;9.124;2023-02-28T02:53:48;11.95;;;4.85;;
45694;SDS011;31408;45.468;9.124;2023-02-28T02:56:19;12.55;;;4.28;;
45694;SDS011;31408;45.468;9.124;2023-02-28T02:58:47;8.10;;;4.13;;
45694;SDS011;31408;45.468;9.124;2023-02-28T03:01:15;13.88;;;4.28;;
45694;SDS011;31408;45.468;9.124;2023-02-28T03:04:02;7.28;;;4.00;;
45694;SDS011;31408;45.468;9.124;2023-02-28T03:06:30;8.95;;;4.05;;
45694;SDS011;31408;45.468;9.124;2023-02-28T03:08:55;11.10;;;5.50;;
45694;SDS011;31408;45.468;9.124;2023-02-28T03:11:21;6.18;;;3.90;;
45694;SDS011;31408;45.468;9.124;2023-02-28T03:33:11;8.88;;;4.25;;
45694;SDS011;31408;45.468;9.124;2023-02-28T03:35:48;7.88;;;3.90;;
45694;SDS011;31408;45.468;9.124;2023-02-28T03:40:53;10.15;;;3.78;;
45694;SDS011;31408;45.468;9.124;2023-02-28T03:43:24;7.88;;;4.15;;
45694;SDS011;31408;45.468;9.124;2023-02-28T03:45:52;10.80;;;5.43;;
45694;SDS011;31408;45.468;9.124;2023-02-28T03:48:28;8.02;;;4.57;;
45694;SDS011;31408;45.468;9.124;2023-02-28T03:50:58;10.23;;;4.20;;
45694;SDS011;31408;45.468;9.124;2023-02-28T03:56:06;8.88;;;3.88;;
45694;SDS011;31408;45.468;9.124;2023-02-28T04:01:31;9.03;;;4.60;;
45694;SDS011;31408;45.468;9.124;2023-02-28T04:04:05;18.55;;;4.15;;
45694;SDS011;31408;45.468;9.124;2023-02-28T04:06:31;7.82;;;4.10;;
45694;SDS011;31408;45.468;9.124;2023-02-28T04:08:58;9.43;;;4.25;;
45694;SDS011;31408;45.468;9.124;2023-02-28T04:11:25;10.00;;;5.07;;
45694;SDS011;31408;45.468;9.124;2023-02-28T04:13:51;7.10;;;5.20;;
45694;SDS011;31408;45.468;9.124;2023-02-28T04:16:16;5.82;;;3.92;;
45694;SDS011;31408;45.468;9.124;2023-02-28T04:18:42;12.77;;;4.75;;
45694;SDS011;31408;45.468;9.124;2023-02-28T04:21:10;8.23;;;4.22;;
45694;SDS011;31408;45.468;9.124;2023-02-28T04:23:36;8.55;;;3.63;;
45694;SDS011;31408;45.468;9.124;2023-02-28T04:26:02;12.57;;;3.63;;
45694;SDS011;31408;45.468;9.124;2023-02-28T04:28:28;8.23;;;3.95;;
45694;SDS011;31408;45.468;9.124;2023-02-28T04:30:58;11.77;;;4.10;;
45694;SDS011;31408;45.468;9.124;2023-02-28T04:33:25;9.02;;;4.43;;
45694;SDS011;31408;45.468;9.124;2023-02-28T04:36:06;8.57;;;4.85;;
45694;SDS011;31408;45.468;9.124;2023-02-28T04:38:34;7.38;;;4.30;;
45694;SDS011;31408;45.468;9.124;2023-02-28T04:41:03;9.15;;;4.18;;
45694;SDS011;31408;45.468;9.124;2023-02-28T04:43:29;9.30;;;4.43;;
45694;SDS011;31408;45.468;9.124;2023-02-28T04:45:55;8.68;;;4.38;;
45694;SDS011;31408;45.468;9.124;2023-02-28T04:48:25;8.05;;;4.15;;
45694;SDS011;31408;45.468;9.124;2023-02-28T04:50:53;9.27;;;4.65;;
45694;SDS011;31408;45.468;9.124;2023-02-28T04:53:23;8.90;;;3.70;;
45694;SDS011;31408;45.468;9.124;2023-02-28T04:55:49;10.93;;;4.68;;
45694;SDS011;31408;45.468;9.124;2023-02-28T04:58:14;12.48;;;4.38;;
45694;SDS011;31408;45.468;9.124;2023-02-28T05:00:40;6.22;;;3.63;;
45694;SDS011;31408;45.468;9.124;2023-02-28T05:03:05;9.20;;;4.45;;
45694;SDS011;31408;45.468;9.124;2023-02-28T05:05:31;9.05;;;5.20;;
45694;SDS011;31408;45.468;9.124;2023-02-28T05:07:56;8.60;;;4.53;;
45694;SDS011;31408;45.468;9.124;2023-02-28T05:10:22;5.57;;;3.85;;
45694;SDS011;31408;45.468;9.124;2023-02-28T05:12:48;8.60;;;3.85;;
45694;SDS011;31408;45.468;9.124;2023-02-28T05:15:14;10.32;;;4.15;;
45694;SDS011;31408;45.468;9.124;2023-02-28T05:17:40;9.48;;;4.03;;
45694;SDS011;31408;45.468;9.124;2023-02-28T05:20:06;8.85;;;4.32;;
45694;SDS011;31408;45.468;9.124;2023-02-28T05:22:34;7.35;;;3.50;;
45694;SDS011;31408;45.468;9.124;2023-02-28T05:25:00;10.02;;;4.97;;
45694;SDS011;31408;45.468;9.124;2023-02-28T05:27:28;8.52;;;4.15;;
45694;SDS011;31408;45.468;9.124;2023-02-28T05:29:53;11.90;;;5.15;;
45694;SDS011;31408;45.468;9.124;2023-02-28T05:32:19;12.57;;;5.38;;
45694;SDS011;31408;45.468;9.124;2023-02-28T05:34:44;7.03;;;4.28;;
45694;SDS011;31408;45.468;9.124;2023-02-28T05:37:13;9.05;;;5.15;;
45694;SDS011;31408;45.468;9.124;2023-02-28T05:39:40;10.85;;;4.47;;
45694;SDS011;31408;45.468;9.124;2023-02-28T05:42:05;13.32;;;5.00;;
45694;SDS011;31408;45.468;9.124;2023-02-28T05:44:31;9.65;;;4.32;;
45694;SDS011;31408;45.468;9.124;2023-02-28T05:46:57;10.82;;;4.55;;
45694;SDS011;31408;45.468;9.124;2023-02-28T05:49:22;10.10;;;4.10;;
45694;SDS011;31408;45.468;9.124;2023-02-28T05:51:48;6.75;;;4.28;;
45694;SDS011;31408;45.468;9.124;2023-02-28T05:54:13;10.60;;;4.53;;
45694;SDS011;31408;45.468;9.124;2023-02-28T05:56:39;10.13;;;4.38;;
45694;SDS011;31408;45.468;9.124;2023-02-28T05:59:06;7.65;;;4.40;;
45694;SDS011;31408;45.468;9.124;2023-02-28T06:01:36;10.40;;;4.97;;
45694;SDS011;31408;45.468;9.124;2023-02-28T06:04:03;7.90;;;4.40;;
45694;SDS011;31408;45.468;9.124;2023-02-28T06:06:29;7.22;;;3.83;;
45694;SDS011;31408;45.468;9.124;2023-02-28T06:08:55;8.45;;;4.88;;
45694;SDS011;31408;45.468;9.124;2023-02-28T06:11:21;6.80;;;4.05;;
45694;SDS011;31408;45.468;9.124;2023-02-28T06:13:53;9.75;;;5.10;;
45694;SDS011;31408;45.468;9.124;2023-02-28T06:16:20;6.63;;;3.60;;
45694;SDS011;31408;45.468;9.124;2023-02-28T06:18:46;11.43;;;4.60;;
45694;SDS011;31408;45.468;9.124;2023-02-28T06:21:12;10.10;;;5.93;;
45694;SDS011;31408;45.468;9.124;2023-02-28T06:23:38;9.52;;;5.60;;
45694;SDS011;31408;45.468;9.124;2023-02-28T06:26:03;11.30;;;5.72;;
45694;SDS011;31408;45.468;9.124;2023-02-28T06:28:29;11.25;;;5.10;;
45694;SDS011;31408;45.468;9.124;2023-02-28T06:30:55;10.00;;;4.72;;
45694;SDS011;31408;45.468;9.124;2023-02-28T06:33:20;9.32;;;4.88;;
45694;SDS011;31408;45.468;9.124;2023-02-28T06:35:46;7.05;;;4.95;;
45694;SDS011;31408;45.468;9.124;2023-02-28T06:38:13;12.15;;;4.75;;
45694;SDS011;31408;45.468;9.124;2023-02-28T06:40:38;10.88;;;5.30;;
45694;SDS011;31408;45.468;9.124;2023-02-28T06:43:04;7.53;;;4.55;;
45694;SDS011;31408;45.468;9.124;2023-02-28T06:45:29;7.93;;;4.65;;
45694;SDS011;31408;45.468;9.124;2023-02-28T06:47:55;8.82;;;4.00;;
45694;SDS011;31408;45.468;9.124;2023-02-28T06:50:20;11.00;;;4.30;;
45694;SDS011;31408;45.468;9.124;2023-02-28T06:52:46;11.98;;;5.82;;
45694;SDS011;31408;45.468;9.124;2023-02-28T06:55:12;17.05;;;6.28;;
45694;SDS011;31408;45.468;9.124;2023-02-28T06:57:38;12.07;;;5.25;;
45694;SDS011;31408;45.468;9.124;2023-02-28T07:00:06;11.48;;;5.78;;
45694;SDS011;31408;45.468;9.124;2023-02-28T07:02:38;14.52;;;6.22;;
45694;SDS011;31408;45.468;9.124;2023-02-28T07:05:04;12.18;;;4.95;;
45694;SDS011;31408;45.468;9.124;2023-02-28T07:07:30;18.17;;;5.15;;
45694;SDS011;31408;45.468;9.124;2023-02-28T07:09:57;11.95;;;5.03;;
45694;SDS011;31408;45.468;9.124;2023-02-28T07:12:22;14.23;;;6.38;;
45694;SDS011;31408;45.468;9.124;2023-02-28T07:14:48;13.35;;;5.78;;
45694;SDS011;31408;45.468;9.124;2023-02-28T07:17:13;14.02;;;6.10;;
45694;SDS011;31408;45.468;9.124;2023-02-28T07:19:39;10.15;;;5.40;;
45694;SDS011;31408;45.468;9.124;2023-02-28T07:22:05;11.00;;;5.65;;
45694;SDS011;31408;45.468;9.124;2023-02-28T07:24:31;14.70;;;6.32;;
45694;SDS011;31408;45.468;9.124;2023-02-28T07:26:57;12.13;;;6.38;;
45694;SDS011;31408;45.468;9.124;2023-02-28T07:29:22;10.45;;;5.43;;
45694;SDS011;31408;45.468;9.124;2023-02-28T07:31:47;11.82;;;5.32;;
45694;SDS011;31408;45.468;9.124;2023-02-28T07:34:15;8.80;;;5.10;;
45694;SDS011;31408;45.468;9.124;2023-02-28T07:36:40;14.70;;;6.00;;
45694;SDS011;31408;45.468;9.124;2023-02-28T07:39:06;10.18;;;5.90;;
45694;SDS011;31408;45.468;9.124;2023-02-28T07:41:31;10.38;;;5.15;;
45694;SDS011;31408;45.468;9.124;2023-02-28T07:43:59;18.58;;;5.38;;
45694;SDS011;31408;45.468;9.124;2023-02-28T07:46:25;15.27;;;6.18;;
45694;SDS011;31408;45.468;9.124;2023-02-28T07:48:51;14.70;;;7.10;;
45694;SDS011;31408;45.468;9.124;2023-02-28T07:51:18;12.38;;;6.95;;
45694;SDS011;31408;45.468;9.124;2023-02-28T07:53:43;15.00;;;6.57;;
45694;SDS011;31408;45.468;9.124;2023-02-28T07:56:09;14.50;;;7.68;;
45694;SDS011;31408;45.468;9.124;2023-02-28T07:58:36;16.50;;;7.38;;
45694;SDS011;31408;45.468;9.124;2023-02-28T08:01:05;14.90;;;6.25;;
45694;SDS011;31408;45.468;9.124;2023-02-28T08:03:32;17.42;;;7.03;;
45694;SDS011;31408;45.468;9.124;2023-02-28T08:05:58;14.63;;;7.35;;
45694;SDS011;31408;45.468;9.124;2023-02-28T08:08:24;14.32;;;6.28;;
45694;SDS011;31408;45.468;9.124;2023-02-28T08:10:53;12.80;;;5.63;;
45694;SDS011;31408;45.468;9.124;2023-02-28T08:13:18;13.18;;;6.65;;
45694;SDS011;31408;45.468;9.124;2023-02-28T08:15:44;12.57;;;6.20;;
45694;SDS011;31408;45.468;9.124;2023-02-28T08:18:10;12.77;;;6.55;;
45694;SDS011;31408;45.468;9.124;2023-02-28T08:20:36;14.55;;;6.80;;
45694;SDS011;31408;45.468;9.124;2023-02-28T08:23:01;14.02;;;7.65;;
45694;SDS011;31408;45.468;9.124;2023-02-28T08:25:27;14.75;;;6.53;;
45694;SDS011;31408;45.468;9.124;2023-02-28T08:27:52;15.35;;;6.68;;
45694;SDS011;31408;45.468;9.124;2023-02-28T08:30:18;14.50;;;7.00;;
45694;SDS011;31408;45.468;9.124;2023-02-28T08:32:43;15.38;;;6.90;;
45694;SDS011;31408;45.468;9.124;2023-02-28T08:35:09;15.57;;;6.28;;
45694;SDS011;31408;45.468;9.124;2023-02-28T08:37:35;15.20;;;6.68;;
45694;SDS011;31408;45.468;9.124;2023-02-28T08:40:01;13.70;;;6.65;;
45694;SDS011;31408;45.468;9.124;2023-02-28T08:42:26;13.82;;;5.72;;
45694;SDS011;31408;45.468;9.124;2023-02-28T08:44:52;12.45;;;6.63;;
45694;SDS011;31408;45.468;9.124;2023-02-28T08:47:17;13.98;;;6.53;;
45694;SDS011;31408;45.468;9.124;2023-02-28T08:49:43;19.58;;;7.15;;
45694;SDS011;31408;45.468;9.124;2023-02-28T08:52:09;14.05;;;6.32;;
45694;SDS011;31408;45.468;9.124;2023-02-28T08:54:34;14.02;;;6.47;;
45694;SDS011;31408;45.468;9.124;2023-02-28T08:57:00;11.20;;;6.28;;
45694;SDS011;31408;45.468;9.124;2023-02-28T08:59:26;13.43;;;6.63;;
45694;SDS011;31408;45.468;9.124;2023-02-28T09:01:51;14.07;;;7.55;;
45694;SDS011;31408;45.468;9.124;2023-02-28T09:04:17;17.67;;;6.78;;
45694;SDS011;31408;45.468;9.124;2023-02-28T09:06:42;14.52;;;7.22;;
45694;SDS011;31408;45.468;9.124;2023-02-28T09:09:09;13.45;;;7.07;;
45694;SDS011;31408;45.468;9.124;2023-02-28T09:11:35;16.33;;;7.22;;
45694;SDS011;31408;45.468;9.124;2023-02-28T09:14:01;12.60;;;6.55;;
45694;SDS011;31408;45.468;9.124;2023-02-28T09:16:28;12.10;;;6.82;;
45694;SDS011;31408;45.468;9.124;2023-02-28T09:18:55;18.10;;;8.20;;
45694;SDS011;31408;45.468;9.124;2023-02-28T09:21:21;14.70;;;6.50;;
45694;SDS011;31408;45.468;9.124;2023-02-28T09:23:47;14.15;;;6.85;;
45694;SDS011;31408;45.468;9.124;2023-02-28T09:26:19;16.10;;;7.03;;
45694;SDS011;31408;45.468;9.124;2023-02-28T09:28:47;12.00;;;6.85;;
45694;SDS011;31408;45.468;9.124;2023-02-28T09:31:14;10.63;;;6.40;;
45694;SDS011;31408;45.468;9.124;2023-02-28T09:33:41;13.55;;;6.55;;
45694;SDS011;31408;45.468;9.124;2023-02-28T09:36:06;14.27;;;7.25;;
45694;SDS011;31408;45.468;9.124;2023-02-28T09:38:32;14.30;;;6.75;;
45694;SDS011;31408;45.468;9.124;2023-02-28T09:41:01;15.48;;;7.55;;
45694;SDS011;31408;45.468;9.124;2023-02-28T09:43:30;15.27;;;5.70;;
45694;SDS011;31408;45.468;9.124;2023-02-28T09:46:14;16.77;;;9.57;;
45694;SDS011;31408;45.468;9.124;2023-02-28T09:48:47;12.93;;;6.78;;
45694;SDS011;31408;45.468;9.124;2023-02-28T09:53:42;18.23;;;7.50;;
45694;SDS011;31408;45.468;9.124;2023-02-28T09:56:08;15.57;;;8.05;;
45694;SDS011;31408;45.468;9.124;2023-02-28T09:58:45;17.73;;;7.10;;
45694;SDS011;31408;45.468;9.124;2023-02-28T10:04:00;16.13;;;7.72;;
45694;SDS011;31408;45.468;9.124;2023-02-28T10:06:30;15.60;;;7.03;;
45694;SDS011;31408;45.468;9.124;2023-02-28T10:09:10;15.95;;;6.78;;
45694;SDS011;31408;45.468;9.124;2023-02-28T10:11:39;15.18;;;7.10;;
45694;SDS011;31408;45.468;9.124;2023-02-28T10:14:18;15.75;;;7.93;;
45694;SDS011;31408;45.468;9.124;2023-02-28T10:16:58;18.90;;;7.20;;
45694;SDS011;31408;45.468;9.124;2023-02-28T10:21:59;20.55;;;7.30;;
45694;SDS011;31408;45.468;9.124;2023-02-28T10:24:41;16.10;;;6.88;;
45694;SDS011;31408;45.468;9.124;2023-02-28T10:27:18;12.98;;;6.13;;
45694;SDS011;31408;45.468;9.124;2023-02-28T10:29:46;13.68;;;7.13;;
45694;SDS011;31408;45.468;9.124;2023-02-28T10:32:15;13.38;;;6.57;;
45694;SDS011;31408;45.468;9.124;2023-02-28T10:34:42;14.68;;;6.38;;
45694;SDS011;31408;45.468;9.124;2023-02-28T10:37:08;12.80;;;6.18;;
45694;SDS011;31408;45.468;9.124;2023-02-28T10:39:36;13.32;;;6.68;;
45694;SDS011;31408;45.468;9.124;2023-02-28T10:42:04;16.42;;;6.18;;
45694;SDS011;31408;45.468;9.124;2023-02-28T10:44:30;15.75;;;6.70;;
45694;SDS011;31408;45.468;9.124;2023-02-28T10:46:55;16.42;;;7.97;;
45694;SDS011;31408;45.468;9.124;2023-02-28T10:49:22;12.52;;;6.65;;
45694;SDS011;31408;45.468;9.124;2023-02-28T10:51:51;14.82;;;6.90;;
45694;SDS011;31408;45.468;9.124;2023-02-28T10:54:20;14.27;;;7.40;;
45694;SDS011;31408;45.468;9.124;2023-02-28T10:59:41;14.75;;;7.07;;
45694;SDS011;31408;45.468;9.124;2023-02-28T11:02:40;14.77;;;7.60;;
45694;SDS011;31408;45.468;9.124;2023-02-28T11:07:26;17.50;;;8.27;;
45694;SDS011;31408;45.468;9.124;2023-02-28T11:09:56;14.02;;;7.35;;
45694;SDS011;31408;45.468;9.124;2023-02-28T11:14:49;16.13;;;7.53;;
45694;SDS011;31408;45.468;9.124;2023-02-28T11:17:23;16.08;;;7.97;;
45694;SDS011;31408;45.468;9.124;2023-02-28T11:19:51;14.38;;;8.10;;
45694;SDS011;31408;45.468;9.124;2023-02-28T11:22:24;18.15;;;8.40;;
45694;SDS011;31408;45.468;9.124;2023-02-28T11:24:56;14.43;;;7.10;;
45694;SDS011;31408;45.468;9.124;2023-02-28T11:29:57;17.20;;;7.97;;
45694;SDS011;31408;45.468;9.124;2023-02-28T11:32:24;19.27;;;8.80;;
45694;SDS011;31408;45.468;9.124;2023-02-28T11:37:34;17.73;;;7.72;;
45694;SDS011;31408;45.468;9.124;2023-02-28T11:40:00;19.33;;;8.10;;
45694;SDS011;31408;45.468;9.124;2023-02-28T11:42:32;16.08;;;8.02;;
45694;SDS011;31408;45.468;9.124;2023-02-28T11:47:47;16.70;;;8.25;;
45694;SDS011;31408;45.468;9.124;2023-02-28T11:53:02;15.13;;;7.13;;
45694;SDS011;31408;45.468;9.124;2023-02-28T12:05:57;18.73;;;8.98;;
45694;SDS011;31408;45.468;9.124;2023-02-28T12:22:13;16.38;;;9.43;;
45694;SDS011;31408;45.468;9.124;2023-02-28T12:27:48;17.77;;;10.02;;
45694;SDS011;31408;45.468;9.124;2023-02-28T12:33:12;17.75;;;8.38;;
45694;SDS011;31408;45.468;9.124;2023-02-28T12:35:44;19.63;;;9.57;;
45694;SDS011;31408;45.468;9.124;2023-02-28T12:41:40;22.40;;;9.43;;
45694;SDS011;31408;45.468;9.124;2023-02-28T12:46:34;20.70;;;9.52;;
45694;SDS011;31408;45.468;9.124;2023-02-28T12:49:06;20.95;;;9.70;;
45694;SDS011;31408;45.468;9.124;2023-02-28T12:51:35;18.13;;;10.18;;
45694;SDS011;31408;45.468;9.124;2023-02-28T13:02:23;17.63;;;9.73;;
45694;SDS011;31408;45.468;9.124;2023-02-28T13:10:51;19.38;;;10.35;;
45694;SDS011;31408;45.468;9.124;2023-02-28T13:13:23;22.00;;;10.43;;
45694;SDS011;31408;45.468;9.124;2023-02-28T13:18:40;18.90;;;8.70;;
45694;SDS011;31408;45.468;9.124;2023-02-28T13:21:09;18.20;;;9.45;;
45694;SDS011;31408;45.468;9.124;2023-02-28T13:23:58;21.35;;;10.13;;
45694;SDS011;31408;45.468;9.124;2023-02-28T13:29:00;19.48;;;10.05;;
45694;SDS011;31408;45.468;9.124;2023-02-28T13:31:29;19.75;;;10.05;;
45694;SDS011;31408;45.468;9.124;2023-02-28T13:36:27;21.38;;;9.98;;
45694;SDS011;31408;45.468;9.124;2023-02-28T13:38:56;20.38;;;9.80;;
45694;SDS011;31408;45.468;9.124;2023-02-28T13:46:29;20.77;;;10.60;;
45694;SDS011;31408;45.468;9.124;2023-02-28T13:48:56;21.35;;;10.57;;
45694;SDS011;31408;45.468;9.124;2023-02-28T13:52:02;17.65;;;9.18;;
45694;SDS011;31408;45.468;9.124;2023-02-28T14:08:52;18.52;;;9.02;;
45694;SDS011;31408;45.468;9.124;2023-02-28T14:11:26;16.20;;;8.63;;
45694;SDS011;31408;45.468;9.124;2023-02-28T14:13:56;19.67;;;9.18;;
45694;SDS011;31408;45.468;9.124;2023-02-28T14:16:26;18.13;;;9.20;;
45694;SDS011;31408;45.468;9.124;2023-02-28T14:18:58;19.55;;;10.07;;
45694;SDS011;31408;45.468;9.124;2023-02-28T14:21:34;16.00;;;8.77;;
45694;SDS011;31408;45.468;9.124;2023-02-28T14:37:39;17.40;;;8.65;;
45694;SDS011;31408;45.468;9.124;2023-02-28T14:40:17;19.45;;;10.18;;
45694;SDS011;31408;45.468;9.124;2023-02-28T14:42:57;18.08;;;8.88;;
45694;SDS011;31408;45.468;9.124;2023-02-28T14:45:24;19.10;;;9.32;;
45694;SDS011;31408;45.468;9.124;2023-02-28T14:47:52;17.27;;;8.55;;
45694;SDS011;31408;45.468;9.124;2023-02-28T14:50:19;18.60;;;9.38;;
45694;SDS011;31408;45.468;9.124;2023-02-28T14:52:46;18.42;;;8.77;;
45694;SDS011;31408;45.468;9.124;2023-02-28T14:55:14;18.85;;;9.65;;
45694;SDS011;31408;45.468;9.124;2023-02-28T14:57:52;19.90;;;9.93;;
45694;SDS011;31408;45.468;9.124;2023-02-28T15:00:27;21.88;;;9.80;;
45694;SDS011;31408;45.468;9.124;2023-02-28T15:02:54;19.60;;;9.52;;
45694;SDS011;31408;45.468;9.124;2023-02-28T15:05:34;21.52;;;10.48;;
45694;SDS011;31408;45.468;9.124;2023-02-28T15:08:13;20.77;;;9.38;;
45694;SDS011;31408;45.468;9.124;2023-02-28T15:10:42;17.40;;;9.13;;
45694;SDS011;31408;45.468;9.124;2023-02-28T15:13:39;27.83;;;10.05;;
45694;SDS011;31408;45.468;9.124;2023-02-28T15:16:13;18.10;;;9.73;;
45694;SDS011;31408;45.468;9.124;2023-02-28T15:18:59;21.70;;;10.88;;
45694;SDS011;31408;45.468;9.124;2023-02-28T15:21:28;15.23;;;7.93;;
45694;SDS011;31408;45.468;9.124;2023-02-28T15:24:00;19.27;;;10.02;;
45694;SDS011;31408;45.468;9.124;2023-02-28T15:26:59;20.35;;;10.18;;
45694;SDS011;31408;45.468;9.124;2023-02-28T15:29:26;19.65;;;8.98;;
45694;SDS011;31408;45.468;9.124;2023-02-28T15:34:36;19.58;;;9.40;;
45694;SDS011;31408;45.468;9.124;2023-02-28T15:37:24;16.33;;;8.98;;
45694;SDS011;31408;45.468;9.124;2023-02-28T15:40:12;20.90;;;10.00;;
45694;SDS011;31408;45.468;9.124;2023-02-28T15:43:12;20.45;;;9.18;;
45694;SDS011;31408;45.468;9.124;2023-02-28T15:48:22;17.90;;;9.55;;
45694;SDS011;31408;45.468;9.124;2023-02-28T15:50:55;22.02;;;9.52;;
45694;SDS011;31408;45.468;9.124;2023-02-28T15:53:52;18.20;;;8.52;;
45694;SDS011;31408;45.468;9.124;2023-02-28T15:56:33;26.02;;;11.05;;
45694;SDS011;31408;45.468;9.124;2023-02-28T15:59:03;22.77;;;10.20;;
45694;SDS011;31408;45.468;9.124;2023-02-28T16:01:32;21.55;;;10.18;;
45694;SDS011;31408;45.468;9.124;2023-02-28T16:04:32;19.15;;;8.90;;
45694;SDS011;31408;45.468;9.124;2023-02-28T16:09:23;18.85;;;10.20;;
45694;SDS011;31408;45.468;9.124;2023-02-28T16:11:49;20.20;;;9.75;;
45694;SDS011;31408;45.468;9.124;2023-02-28T16:14:20;19.92;;;9.98;;
45694;SDS011;31408;45.468;9.124;2023-02-28T16:16:55;22.55;;;9.55;;
45694;SDS011;31408;45.468;9.124;2023-02-28T16:19:27;16.42;;;8.40;;
45694;SDS011;31408;45.468;9.124;2023-02-28T16:21:53;19.90;;;10.30;;
45694;SDS011;31408;45.468;9.124;2023-02-28T16:24:18;19.05;;;9.85;;
45694;SDS011;31408;45.468;9.124;2023-02-28T16:26:45;20.08;;;9.48;;
45694;SDS011;31408;45.468;9.124;2023-02-28T16:29:19;20.17;;;9.77;;
45694;SDS011;31408;45.468;9.124;2023-02-28T16:31:50;24.33;;;10.07;;
45694;SDS011;31408;45.468;9.124;2023-02-28T16:34:15;18.30;;;8.70;;
45694;SDS011;31408;45.468;9.124;2023-02-28T16:36:41;19.77;;;9.75;;
45694;SDS011;31408;45.468;9.124;2023-02-28T16:39:06;19.98;;;9.23;;
45694;SDS011;31408;45.468;9.124;2023-02-28T16:41:32;23.77;;;10.52;;
45694;SDS011;31408;45.468;9.124;2023-02-28T16:43:59;19.33;;;9.10;;
45694;SDS011;31408;45.468;9.124;2023-02-28T16:46:27;18.23;;;8.85;;
45694;SDS011;31408;45.468;9.124;2023-02-28T16:48:56;19.17;;;9.35;;
45694;SDS011;31408;45.468;9.124;2023-02-28T16:51:22;20.05;;;8.98;;
45694;SDS011;31408;45.468;9.124;2023-02-28T16:53:48;20.60;;;9.27;;
45694;SDS011;31408;45.468;9.124;2023-02-28T16:56:15;22.05;;;9.43;;
45694;SDS011;31408;45.468;9.124;2023-02-28T16:58:42;15.65;;;8.10;;
45694;SDS011;31408;45.468;9.124;2023-02-28T17:01:08;17.83;;;8.05;;
45694;SDS011;31408;45.468;9.124;2023-02-28T17:03:33;18.40;;;8.32;;
45694;SDS011;31408;45.468;9.124;2023-02-28T17:06:01;18.95;;;8.32;;
45694;SDS011;31408;45.468;9.124;2023-02-28T17:08:26;22.92;;;8.75;;
45694;SDS011;31408;45.468;9.124;2023-02-28T17:10:54;16.58;;;8.27;;
45694;SDS011;31408;45.468;9.124;2023-02-28T17:13:19;19.67;;;9.13;;
45694;SDS011;31408;45.468;9.124;2023-02-28T17:15:45;21.40;;;9.60;;
45694;SDS011;31408;45.468;9.124;2023-02-28T17:18:15;20.90;;;9.15;;
45694;SDS011;31408;45.468;9.124;2023-02-28T17:20:44;19.57;;;9.20;;
45694;SDS011;31408;45.468;9.124;2023-02-28T17:23:10;19.02;;;8.35;;
45694;SDS011;31408;45.468;9.124;2023-02-28T17:25:36;18.38;;;8.98;;
45694;SDS011;31408;45.468;9.124;2023-02-28T17:28:02;20.75;;;8.90;;
45694;SDS011;31408;45.468;9.124;2023-02-28T17:30:27;18.02;;;8.57;;
45694;SDS011;31408;45.468;9.124;2023-02-28T17:32:53;17.30;;;7.47;;
45694;SDS011;31408;45.468;9.124;2023-02-28T17:35:22;18.77;;;9.35;;
45694;SDS011;31408;45.468;9.124;2023-02-28T17:37:48;20.13;;;8.80;;